In Rescue
 
Open Full Screen Window  High Contrast Mode
Wind Gusting 20 knots
14
March 01, 2024 3:09 PM EST
Weather Information
Wind Direction
  220 °
Wind Speed
  14 kt (16 mph)
Wind Gust
  20 kt (23 mph)
Altimeter
30.09 in
Visibility
10 SM
Temperature
07° C
45° F
Dewpoint
-05° C
23° F
Humidity
42%
Sky Condition
Clear
VFR

METAR KFKS 012009Z AUTO 22014G20KT 10SM CLR 07/M05 A3009 RMK AO2 T00661047

FAA Disclaimer: The data displayed is for advisory purposes only and is not to be used for flight planning or operations.